If you wish to contribute or participate in the discussions about articles you are invited to join SKYbrary as a registered user

 Actions

Pula Airport

From SKYbrary Wiki

LDPL /
Revision as of 15:54, 25 August 2021 by Integration.Manager (talk | contribs) (Created page with "{{Airport |Airport_Name=Pula Airport |ICAO_Region=EUR |ICAO_Territory=LD |IATA Code=PUY |Elevation=274ft |Location=Pula |Main city served=Pula |ISO_Subdivision_Name=Istria |Co...")
(diff) ← Older revision | Latest revision (diff) | Newer revision → (diff)
Airport
ICAO: LDPL – IATA: PUY
Summary
Name Pula Airport
Region Europe
Territory Croatia HR.gif
Location Pula, Istria
Serving Pula
Elevation 83.515 m <br />274 ft83.515 m <br />
Coordinates 44° 53' 44.41" N, 13° 55' 8.29" E
Runways
Designator Length Width Surface ROPS
9/27 2950 m9,678.478 ft <br /> 45 m147.638 ft <br /> ASP yes/yes


METAR
Observation LDPL 270000Z VRB03KT CAVOK 07/05 Q1023
Station Pula Aerodrome
Date/Time 27 October 2021 00:00:00
Wind direction °
Wind speed 03 kts
Lowest cloud amount clouds and visibility OK
Temperature 7°C
Dew point 5°C
Humidity 87%
QNH 1023 hPa
Weather condition n/a

Pula Airport is the international airport serving Pula, Croatia

Climatology

Humid subtropical climate (Köppen climate classification Cfa)

Maps

Terrain

Loading map...

Airport Layout

Loading map...


Accidents & Serious Incidents at or in vicinity of LDPL

None on SKYbrary